sensor_id;sensor_type;location;lat;lon;timestamp;temperature;humidity
8152;DHT22;4117;53.622;9.958;2024-03-02T00:01:07;8.10;99.90
8152;DHT22;4117;53.622;9.958;2024-03-02T00:03:34;8.10;99.90
8152;DHT22;4117;53.622;9.958;2024-03-02T00:06:01;8.10;99.90
8152;DHT22;4117;53.622;9.958;2024-03-02T00:08:28;8.10;99.90
8152;DHT22;4117;53.622;9.958;2024-03-02T00:10:58;8.10;99.90
8152;DHT22;4117;53.622;9.958;2024-03-02T00:13:25;8.10;99.90
8152;DHT22;4117;53.622;9.958;2024-03-02T00:15:53;8.10;99.90
8152;DHT22;4117;53.622;9.958;2024-03-02T00:18:26;8.10;99.90
8152;DHT22;4117;53.622;9.958;2024-03-02T00:20:54;8.10;99.90
8152;DHT22;4117;53.622;9.958;2024-03-02T00:23:23;8.10;99.90
8152;DHT22;4117;53.622;9.958;2024-03-02T00:25:53;8.10;99.90
8152;DHT22;4117;53.622;9.958;2024-03-02T00:28:21;8.10;99.90
8152;DHT22;4117;53.622;9.958;2024-03-02T00:30:55;8.10;99.90
8152;DHT22;4117;53.622;9.958;2024-03-02T00:33:27;8.10;99.90
8152;DHT22;4117;53.622;9.958;2024-03-02T00:35:54;8.10;99.90
8152;DHT22;4117;53.622;9.958;2024-03-02T00:38:22;8.10;99.90
8152;DHT22;4117;53.622;9.958;2024-03-02T00:40:49;8.10;99.90
8152;DHT22;4117;53.622;9.958;2024-03-02T00:43:44;8.10;99.90
8152;DHT22;4117;53.622;9.958;2024-03-02T00:46:13;8.10;99.90
8152;DHT22;4117;53.622;9.958;2024-03-02T00:48:50;8.10;99.90
8152;DHT22;4117;53.622;9.958;2024-03-02T00:51:18;8.10;99.90
8152;DHT22;4117;53.622;9.958;2024-03-02T00:53:45;8.10;99.90
8152;DHT22;4117;53.622;9.958;2024-03-02T00:56:12;8.10;99.90
8152;DHT22;4117;53.622;9.958;2024-03-02T00:58:39;8.10;99.90
8152;DHT22;4117;53.622;9.958;2024-03-02T01:01:06;8.10;99.90
8152;DHT22;4117;53.622;9.958;2024-03-02T01:03:34;8.10;99.90
8152;DHT22;4117;53.622;9.958;2024-03-02T01:06:04;8.10;99.90
8152;DHT22;4117;53.622;9.958;2024-03-02T01:08:33;8.10;99.90
8152;DHT22;4117;53.622;9.958;2024-03-02T01:11:00;8.10;99.90
8152;DHT22;4117;53.622;9.958;2024-03-02T01:13:27;8.10;99.90
8152;DHT22;4117;53.622;9.958;2024-03-02T01:15:54;8.10;99.90
8152;DHT22;4117;53.622;9.958;2024-03-02T01:18:21;8.10;99.90
8152;DHT22;4117;53.622;9.958;2024-03-02T01:20:49;8.10;99.90
8152;DHT22;4117;53.622;9.958;2024-03-02T01:23:18;8.00;99.90
8152;DHT22;4117;53.622;9.958;2024-03-02T01:25:46;8.00;99.90
8152;DHT22;4117;53.622;9.958;2024-03-02T01:28:13;8.00;99.90
8152;DHT22;4117;53.622;9.958;2024-03-02T01:30:41;8.00;99.90
8152;DHT22;4117;53.622;9.958;2024-03-02T01:33:10;8.00;99.90
8152;DHT22;4117;53.622;9.958;2024-03-02T01:35:37;8.00;99.90
8152;DHT22;4117;53.622;9.958;2024-03-02T01:38:04;8.00;99.90
8152;DHT22;4117;53.622;9.958;2024-03-02T01:40:34;8.00;99.90
8152;DHT22;4117;53.622;9.958;2024-03-02T01:43:01;8.00;99.90
8152;DHT22;4117;53.622;9.958;2024-03-02T01:45:29;8.00;99.90
8152;DHT22;4117;53.622;9.958;2024-03-02T01:47:56;8.00;99.90
8152;DHT22;4117;53.622;9.958;2024-03-02T01:50:27;8.00;99.90
8152;DHT22;4117;53.622;9.958;2024-03-02T01:52:54;7.90;99.90
8152;DHT22;4117;53.622;9.958;2024-03-02T01:55:21;7.90;99.90
8152;DHT22;4117;53.622;9.958;2024-03-02T01:57:49;7.90;99.90
8152;DHT22;4117;53.622;9.958;2024-03-02T02:00:18;7.90;99.90
8152;DHT22;4117;53.622;9.958;2024-03-02T02:02:45;7.90;99.90
8152;DHT22;4117;53.622;9.958;2024-03-02T02:05:12;7.90;99.90
8152;DHT22;4117;53.622;9.958;2024-03-02T02:07:40;7.90;99.90
8152;DHT22;4117;53.622;9.958;2024-03-02T02:10:07;7.90;99.90
8152;DHT22;4117;53.622;9.958;2024-03-02T02:12:35;7.90;99.90
8152;DHT22;4117;53.622;9.958;2024-03-02T02:15:04;7.90;99.90
8152;DHT22;4117;53.622;9.958;2024-03-02T02:17:31;7.90;99.90
8152;DHT22;4117;53.622;9.958;2024-03-02T02:19:58;7.90;99.90
8152;DHT22;4117;53.622;9.958;2024-03-02T02:22:26;7.90;99.90
8152;DHT22;4117;53.622;9.958;2024-03-02T02:24:53;7.80;99.90
8152;DHT22;4117;53.622;9.958;2024-03-02T02:27:20;7.90;99.90
8152;DHT22;4117;53.622;9.958;2024-03-02T02:29:47;7.90;99.90
8152;DHT22;4117;53.622;9.958;2024-03-02T02:32:14;7.90;99.90
8152;DHT22;4117;53.622;9.958;2024-03-02T02:34:52;7.90;99.90
8152;DHT22;4117;53.622;9.958;2024-03-02T02:37:19;7.80;99.90
8152;DHT22;4117;53.622;9.958;2024-03-02T02:39:47;7.80;99.90
8152;DHT22;4117;53.622;9.958;2024-03-02T02:42:14;7.80;99.90
8152;DHT22;4117;53.622;9.958;2024-03-02T02:44:41;7.80;99.90
8152;DHT22;4117;53.622;9.958;2024-03-02T02:47:08;7.80;99.90
8152;DHT22;4117;53.622;9.958;2024-03-02T02:49:35;7.80;99.90
8152;DHT22;4117;53.622;9.958;2024-03-02T02:52:02;7.80;99.90
8152;DHT22;4117;53.622;9.958;2024-03-02T02:54:29;7.80;99.90
8152;DHT22;4117;53.622;9.958;2024-03-02T02:56:57;7.80;99.90
8152;DHT22;4117;53.622;9.958;2024-03-02T02:59:25;7.70;99.90
8152;DHT22;4117;53.622;9.958;2024-03-02T03:01:52;7.80;99.90
8152;DHT22;4117;53.622;9.958;2024-03-02T03:04:19;7.70;99.90
8152;DHT22;4117;53.622;9.958;2024-03-02T03:06:46;7.70;99.90
8152;DHT22;4117;53.622;9.958;2024-03-02T03:09:13;7.70;99.90
8152;DHT22;4117;53.622;9.958;2024-03-02T03:11:41;7.70;99.90
8152;DHT22;4117;53.622;9.958;2024-03-02T03:14:10;7.70;99.90
8152;DHT22;4117;53.622;9.958;2024-03-02T03:16:37;7.70;99.90
8152;DHT22;4117;53.622;9.958;2024-03-02T03:19:04;7.70;99.90
8152;DHT22;4117;53.622;9.958;2024-03-02T03:21:31;7.70;99.90
8152;DHT22;4117;53.622;9.958;2024-03-02T03:23:58;7.70;99.90
8152;DHT22;4117;53.622;9.958;2024-03-02T03:26:25;7.70;99.90
8152;DHT22;4117;53.622;9.958;2024-03-02T03:28:52;7.70;99.90
8152;DHT22;4117;53.622;9.958;2024-03-02T03:31:23;7.70;99.90
8152;DHT22;4117;53.622;9.958;2024-03-02T03:33:50;7.70;99.90
8152;DHT22;4117;53.622;9.958;2024-03-02T03:36:17;7.70;99.90
8152;DHT22;4117;53.622;9.958;2024-03-02T03:38:44;7.70;99.90
8152;DHT22;4117;53.622;9.958;2024-03-02T03:41:11;7.60;99.90
8152;DHT22;4117;53.622;9.958;2024-03-02T03:43:38;7.70;99.90
8152;DHT22;4117;53.622;9.958;2024-03-02T03:46:05;7.70;99.90
8152;DHT22;4117;53.622;9.958;2024-03-02T03:48:33;7.60;99.90
8152;DHT22;4117;53.622;9.958;2024-03-02T03:51:00;7.60;99.90
8152;DHT22;4117;53.622;9.958;2024-03-02T03:53:27;7.60;99.90
8152;DHT22;4117;53.622;9.958;2024-03-02T03:55:54;7.60;99.90
8152;DHT22;4117;53.622;9.958;2024-03-02T03:58:21;7.60;99.90
8152;DHT22;4117;53.622;9.958;2024-03-02T04:00:48;7.60;99.90
8152;DHT22;4117;53.622;9.958;2024-03-02T04:03:15;7.60;99.90
8152;DHT22;4117;53.622;9.958;2024-03-02T04:05:44;7.60;99.90
8152;DHT22;4117;53.622;9.958;2024-03-02T04:08:11;7.60;99.90
8152;DHT22;4117;53.622;9.958;2024-03-02T04:10:38;7.60;99.90
8152;DHT22;4117;53.622;9.958;2024-03-02T04:13:05;7.60;99.90
8152;DHT22;4117;53.622;9.958;2024-03-02T04:15:33;7.60;99.90
8152;DHT22;4117;53.622;9.958;2024-03-02T04:18:00;7.60;99.90
8152;DHT22;4117;53.622;9.958;2024-03-02T04:20:27;7.60;99.90
8152;DHT22;4117;53.622;9.958;2024-03-02T04:22:55;7.60;99.90
8152;DHT22;4117;53.622;9.958;2024-03-02T04:25:22;7.60;99.90
8152;DHT22;4117;53.622;9.958;2024-03-02T04:27:49;7.50;99.90
8152;DHT22;4117;53.622;9.958;2024-03-02T04:30:16;7.50;99.90
8152;DHT22;4117;53.622;9.958;2024-03-02T04:32:43;7.50;99.90
8152;DHT22;4117;53.622;9.958;2024-03-02T04:35:11;7.50;99.90
8152;DHT22;4117;53.622;9.958;2024-03-02T04:37:39;7.50;99.90
8152;DHT22;4117;53.622;9.958;2024-03-02T04:40:08;7.50;99.90
8152;DHT22;4117;53.622;9.958;2024-03-02T04:42:36;7.50;99.90
8152;DHT22;4117;53.622;9.958;2024-03-02T04:45:03;7.50;99.90
8152;DHT22;4117;53.622;9.958;2024-03-02T04:47:30;7.50;99.90
8152;DHT22;4117;53.622;9.958;2024-03-02T04:49:57;7.50;99.90
8152;DHT22;4117;53.622;9.958;2024-03-02T04:52:24;7.50;99.90
8152;DHT22;4117;53.622;9.958;2024-03-02T04:54:51;7.50;99.90
8152;DHT22;4117;53.622;9.958;2024-03-02T04:57:45;7.50;99.90
8152;DHT22;4117;53.622;9.958;2024-03-02T05:00:13;7.50;99.90
8152;DHT22;4117;53.622;9.958;2024-03-02T05:02:40;7.50;99.90
8152;DHT22;4117;53.622;9.958;2024-03-02T05:05:08;7.50;99.90
8152;DHT22;4117;53.622;9.958;2024-03-02T05:07:34;7.40;99.90
8152;DHT22;4117;53.622;9.958;2024-03-02T05:10:02;7.40;99.90
8152;DHT22;4117;53.622;9.958;2024-03-02T05:12:29;7.40;99.90
8152;DHT22;4117;53.622;9.958;2024-03-02T05:15:22;7.40;99.90
8152;DHT22;4117;53.622;9.958;2024-03-02T05:17:49;7.40;99.90
8152;DHT22;4117;53.622;9.958;2024-03-02T05:20:16;7.40;99.90
8152;DHT22;4117;53.622;9.958;2024-03-02T05:22:43;7.40;99.90
8152;DHT22;4117;53.622;9.958;2024-03-02T05:25:10;7.40;99.90
8152;DHT22;4117;53.622;9.958;2024-03-02T05:27:37;7.40;99.90
8152;DHT22;4117;53.622;9.958;2024-03-02T05:30:05;7.40;99.90
8152;DHT22;4117;53.622;9.958;2024-03-02T05:32:34;7.40;99.90
8152;DHT22;4117;53.622;9.958;2024-03-02T05:35:01;7.40;99.90
8152;DHT22;4117;53.622;9.958;2024-03-02T05:37:30;7.40;99.90
8152;DHT22;4117;53.622;9.958;2024-03-02T05:39:57;7.40;99.90
8152;DHT22;4117;53.622;9.958;2024-03-02T05:42:25;7.40;99.90
8152;DHT22;4117;53.622;9.958;2024-03-02T05:44:52;7.40;99.90
8152;DHT22;4117;53.622;9.958;2024-03-02T05:47:19;7.40;99.90
8152;DHT22;4117;53.622;9.958;2024-03-02T05:49:48;7.30;99.90
8152;DHT22;4117;53.622;9.958;2024-03-02T05:52:15;7.30;99.90
8152;DHT22;4117;53.622;9.958;2024-03-02T05:54:42;7.30;99.90
8152;DHT22;4117;53.622;9.958;2024-03-02T05:57:09;7.30;99.90
8152;DHT22;4117;53.622;9.958;2024-03-02T05:59:59;7.30;99.90
8152;DHT22;4117;53.622;9.958;2024-03-02T06:02:26;7.30;99.90
8152;DHT22;4117;53.622;9.958;2024-03-02T06:04:56;7.30;99.90
8152;DHT22;4117;53.622;9.958;2024-03-02T06:07:23;7.30;99.90
8152;DHT22;4117;53.622;9.958;2024-03-02T06:09:50;7.30;99.90
8152;DHT22;4117;53.622;9.958;2024-03-02T06:12:18;7.30;99.90
8152;DHT22;4117;53.622;9.958;2024-03-02T06:14:45;7.30;99.90
8152;DHT22;4117;53.622;9.958;2024-03-02T06:17:12;7.20;99.90
8152;DHT22;4117;53.622;9.958;2024-03-02T06:19:39;7.20;99.90
8152;DHT22;4117;53.622;9.958;2024-03-02T06:22:07;7.20;99.90
8152;DHT22;4117;53.622;9.958;2024-03-02T06:24:36;7.20;99.90
8152;DHT22;4117;53.622;9.958;2024-03-02T06:27:03;7.20;99.90
8152;DHT22;4117;53.622;9.958;2024-03-02T06:29:32;7.20;99.90
8152;DHT22;4117;53.622;9.958;2024-03-02T06:31:59;7.20;99.90
8152;DHT22;4117;53.622;9.958;2024-03-02T06:34:26;7.20;99.90
8152;DHT22;4117;53.622;9.958;2024-03-02T06:36:53;7.20;99.90
8152;DHT22;4117;53.622;9.958;2024-03-02T06:39:22;7.20;99.90
8152;DHT22;4117;53.622;9.958;2024-03-02T06:41:49;7.20;99.90
8152;DHT22;4117;53.622;9.958;2024-03-02T06:44:16;7.20;99.90
8152;DHT22;4117;53.622;9.958;2024-03-02T06:46:43;7.20;99.90
8152;DHT22;4117;53.622;9.958;2024-03-02T06:49:10;7.10;99.90
8152;DHT22;4117;53.622;9.958;2024-03-02T06:51:37;7.10;99.90
8152;DHT22;4117;53.622;9.958;2024-03-02T06:54:04;7.10;99.90
8152;DHT22;4117;53.622;9.958;2024-03-02T06:56:33;7.10;99.90
8152;DHT22;4117;53.622;9.958;2024-03-02T06:59:00;7.10;99.90
8152;DHT22;4117;53.622;9.958;2024-03-02T07:01:27;7.10;99.90
8152;DHT22;4117;53.622;9.958;2024-03-02T07:03:54;7.20;99.90
8152;DHT22;4117;53.622;9.958;2024-03-02T07:06:23;7.20;99.90
8152;DHT22;4117;53.622;9.958;2024-03-02T07:08:50;7.20;99.90
8152;DHT22;4117;53.622;9.958;2024-03-02T07:11:17;7.20;99.90
8152;DHT22;4117;53.622;9.958;2024-03-02T07:13:46;7.20;99.90
8152;DHT22;4117;53.622;9.958;2024-03-02T07:16:13;7.30;99.90
8152;DHT22;4117;53.622;9.958;2024-03-02T07:18:54;7.30;99.90
8152;DHT22;4117;53.622;9.958;2024-03-02T07:21:22;7.30;99.90
8152;DHT22;4117;53.622;9.958;2024-03-02T07:23:49;7.30;99.90
8152;DHT22;4117;53.622;9.958;2024-03-02T07:26:17;7.40;99.90
8152;DHT22;4117;53.622;9.958;2024-03-02T07:28:46;7.40;99.90
8152;DHT22;4117;53.622;9.958;2024-03-02T07:31:14;7.40;99.90
8152;DHT22;4117;53.622;9.958;2024-03-02T07:33:44;7.50;99.90
8152;DHT22;4117;53.622;9.958;2024-03-02T07:36:11;7.50;99.90
8152;DHT22;4117;53.622;9.958;2024-03-02T07:38:38;7.50;99.90
8152;DHT22;4117;53.622;9.958;2024-03-02T07:41:06;7.50;99.90
8152;DHT22;4117;53.622;9.958;2024-03-02T07:43:33;7.50;99.90
8152;DHT22;4117;53.622;9.958;2024-03-02T07:46:01;7.60;99.90
8152;DHT22;4117;53.622;9.958;2024-03-02T07:48:29;7.60;99.90
8152;DHT22;4117;53.622;9.958;2024-03-02T07:50:56;7.60;99.90
8152;DHT22;4117;53.622;9.958;2024-03-02T07:53:23;7.60;99.90
8152;DHT22;4117;53.622;9.958;2024-03-02T07:55:51;7.60;99.90
8152;DHT22;4117;53.622;9.958;2024-03-02T07:58:18;7.70;99.90
8152;DHT22;4117;53.622;9.958;2024-03-02T08:00:45;7.70;99.90
8152;DHT22;4117;53.622;9.958;2024-03-02T08:03:14;7.70;99.90
8152;DHT22;4117;53.622;9.958;2024-03-02T08:05:41;7.70;99.90
8152;DHT22;4117;53.622;9.958;2024-03-02T08:08:08;7.70;99.90
8152;DHT22;4117;53.622;9.958;2024-03-02T08:10:37;7.70;99.90
8152;DHT22;4117;53.622;9.958;2024-03-02T08:13:04;7.70;99.90
8152;DHT22;4117;53.622;9.958;2024-03-02T08:15:31;7.70;99.90
8152;DHT22;4117;53.622;9.958;2024-03-02T08:18:01;7.70;99.90
8152;DHT22;4117;53.622;9.958;2024-03-02T08:20:30;7.70;99.90
8152;DHT22;4117;53.622;9.958;2024-03-02T08:22:57;7.80;99.90
8152;DHT22;4117;53.622;9.958;2024-03-02T08:25:24;7.80;99.90
8152;DHT22;4117;53.622;9.958;2024-03-02T08:27:51;7.80;99.90
8152;DHT22;4117;53.622;9.958;2024-03-02T08:30:27;7.80;99.90
8152;DHT22;4117;53.622;9.958;2024-03-02T08:32:54;7.80;99.90
8152;DHT22;4117;53.622;9.958;2024-03-02T08:35:21;7.80;99.90
8152;DHT22;4117;53.622;9.958;2024-03-02T08:37:50;7.80;99.90
8152;DHT22;4117;53.622;9.958;2024-03-02T08:40:17;7.90;99.90
8152;DHT22;4117;53.622;9.958;2024-03-02T08:42:47;7.90;99.90
8152;DHT22;4117;53.622;9.958;2024-03-02T08:45:23;7.90;99.90
8152;DHT22;4117;53.622;9.958;2024-03-02T08:47:50;7.90;99.90
8152;DHT22;4117;53.622;9.958;2024-03-02T08:50:17;7.90;99.90
8152;DHT22;4117;53.622;9.958;2024-03-02T08:52:44;8.00;99.90
8152;DHT22;4117;53.622;9.958;2024-03-02T08:55:12;8.00;99.90
8152;DHT22;4117;53.622;9.958;2024-03-02T08:57:40;8.10;99.90
8152;DHT22;4117;53.622;9.958;2024-03-02T09:00:08;8.10;99.90
8152;DHT22;4117;53.622;9.958;2024-03-02T09:02:36;8.20;99.90
8152;DHT22;4117;53.622;9.958;2024-03-02T09:05:06;8.30;99.90
8152;DHT22;4117;53.622;9.958;2024-03-02T09:07:34;8.30;99.90
8152;DHT22;4117;53.622;9.958;2024-03-02T09:10:01;8.50;99.90
8152;DHT22;4117;53.622;9.958;2024-03-02T09:12:29;8.60;99.90
8152;DHT22;4117;53.622;9.958;2024-03-02T09:14:56;8.70;99.90
8152;DHT22;4117;53.622;9.958;2024-03-02T09:17:23;8.70;99.90
8152;DHT22;4117;53.622;9.958;2024-03-02T09:19:53;8.80;99.90
8152;DHT22;4117;53.622;9.958;2024-03-02T09:22:20;8.70;99.90
8152;DHT22;4117;53.622;9.958;2024-03-02T09:24:47;8.80;99.90
8152;DHT22;4117;53.622;9.958;2024-03-02T09:27:14;8.80;99.90
8152;DHT22;4117;53.622;9.958;2024-03-02T09:29:42;8.80;99.90
8152;DHT22;4117;53.622;9.958;2024-03-02T09:32:12;8.80;99.90
8152;DHT22;4117;53.622;9.958;2024-03-02T09:34:40;8.80;99.90
8152;DHT22;4117;53.622;9.958;2024-03-02T09:37:07;8.90;99.90
8152;DHT22;4117;53.622;9.958;2024-03-02T09:39:36;8.90;99.90
8152;DHT22;4117;53.622;9.958;2024-03-02T09:42:04;9.00;99.90
8152;DHT22;4117;53.622;9.958;2024-03-02T09:44:33;9.00;99.90
8152;DHT22;4117;53.622;9.958;2024-03-02T09:47:01;9.10;99.90
8152;DHT22;4117;53.622;9.958;2024-03-02T09:49:29;9.20;99.90
8152;DHT22;4117;53.622;9.958;2024-03-02T09:51:56;9.20;99.90
8152;DHT22;4117;53.622;9.958;2024-03-02T09:54:23;9.30;99.90
8152;DHT22;4117;53.622;9.958;2024-03-02T09:56:50;9.30;99.90
8152;DHT22;4117;53.622;9.958;2024-03-02T09:59:17;9.40;99.90
8152;DHT22;4117;53.622;9.958;2024-03-02T10:01:56;9.50;99.90
8152;DHT22;4117;53.622;9.958;2024-03-02T10:04:26;9.60;99.90
8152;DHT22;4117;53.622;9.958;2024-03-02T10:07:12;9.60;99.90
8152;DHT22;4117;53.622;9.958;2024-03-02T10:09:40;9.70;99.90
8152;DHT22;4117;53.622;9.958;2024-03-02T10:12:08;9.70;99.90
8152;DHT22;4117;53.622;9.958;2024-03-02T10:14:37;9.70;99.90
8152;DHT22;4117;53.622;9.958;2024-03-02T10:17:05;9.80;99.90
8152;DHT22;4117;53.622;9.958;2024-03-02T10:19:34;9.80;99.90
8152;DHT22;4117;53.622;9.958;2024-03-02T10:22:03;9.80;99.90
8152;DHT22;4117;53.622;9.958;2024-03-02T10:24:36;9.90;99.90
8152;DHT22;4117;53.622;9.958;2024-03-02T10:27:07;9.90;99.90
8152;DHT22;4117;53.622;9.958;2024-03-02T10:29:39;9.90;99.90
8152;DHT22;4117;53.622;9.958;2024-03-02T10:32:09;10.00;99.90
8152;DHT22;4117;53.622;9.958;2024-03-02T10:34:40;10.00;99.90
8152;DHT22;4117;53.622;9.958;2024-03-02T10:37:07;10.10;99.90
8152;DHT22;4117;53.622;9.958;2024-03-02T10:39:35;10.10;99.90
8152;DHT22;4117;53.622;9.958;2024-03-02T10:42:03;10.10;99.90
8152;DHT22;4117;53.622;9.958;2024-03-02T10:44:31;10.10;99.90
8152;DHT22;4117;53.622;9.958;2024-03-02T10:47:00;10.10;99.90
8152;DHT22;4117;53.622;9.958;2024-03-02T10:49:29;10.20;99.90
8152;DHT22;4117;53.622;9.958;2024-03-02T10:51:58;10.20;99.90
8152;DHT22;4117;53.622;9.958;2024-03-02T10:54:26;10.30;99.90
8152;DHT22;4117;53.622;9.958;2024-03-02T10:56:57;10.30;99.90
8152;DHT22;4117;53.622;9.958;2024-03-02T10:59:27;10.30;99.90
8152;DHT22;4117;53.622;9.958;2024-03-02T11:01:57;10.40;99.90
8152;DHT22;4117;53.622;9.958;2024-03-02T11:04:26;10.40;99.90
8152;DHT22;4117;53.622;9.958;2024-03-02T11:06:56;10.50;99.90
8152;DHT22;4117;53.622;9.958;2024-03-02T11:09:28;10.50;99.90
8152;DHT22;4117;53.622;9.958;2024-03-02T11:12:03;10.60;99.90
8152;DHT22;4117;53.622;9.958;2024-03-02T11:14:31;10.60;99.90
8152;DHT22;4117;53.622;9.958;2024-03-02T11:17:00;10.70;99.90
8152;DHT22;4117;53.622;9.958;2024-03-02T11:19:30;10.70;99.90
8152;DHT22;4117;53.622;9.958;2024-03-02T11:21:57;10.70;99.90
8152;DHT22;4117;53.622;9.958;2024-03-02T11:24:30;10.80;99.90
8152;DHT22;4117;53.622;9.958;2024-03-02T11:27:01;10.80;99.90
8152;DHT22;4117;53.622;9.958;2024-03-02T11:29:44;10.90;99.90
8152;DHT22;4117;53.622;9.958;2024-03-02T11:32:20;10.90;99.90
8152;DHT22;4117;53.622;9.958;2024-03-02T11:34:49;11.00;99.90
8152;DHT22;4117;53.622;9.958;2024-03-02T11:37:16;11.10;99.90
8152;DHT22;4117;53.622;9.958;2024-03-02T11:39:46;11.00;99.90
8152;DHT22;4117;53.622;9.958;2024-03-02T11:42:15;11.10;99.90
8152;DHT22;4117;53.622;9.958;2024-03-02T11:44:43;11.10;99.90
8152;DHT22;4117;53.622;9.958;2024-03-02T11:47:12;11.20;99.90
8152;DHT22;4117;53.622;9.958;2024-03-02T11:49:42;11.20;99.90
8152;DHT22;4117;53.622;9.958;2024-03-02T11:52:10;11.20;99.90
8152;DHT22;4117;53.622;9.958;2024-03-02T11:54:38;11.20;99.90
8152;DHT22;4117;53.622;9.958;2024-03-02T11:57:08;11.20;99.90
8152;DHT22;4117;53.622;9.958;2024-03-02T11:59:35;11.30;99.90
8152;DHT22;4117;53.622;9.958;2024-03-02T12:02:02;11.30;99.90
8152;DHT22;4117;53.622;9.958;2024-03-02T12:04:30;11.30;99.90
8152;DHT22;4117;53.622;9.958;2024-03-02T12:06:59;11.30;99.90
8152;DHT22;4117;53.622;9.958;2024-03-02T12:09:29;11.30;99.90
8152;DHT22;4117;53.622;9.958;2024-03-02T12:12:03;11.40;99.90
8152;DHT22;4117;53.622;9.958;2024-03-02T12:14:33;11.40;99.90
8152;DHT22;4117;53.622;9.958;2024-03-02T12:17:05;11.40;99.90
8152;DHT22;4117;53.622;9.958;2024-03-02T12:19:32;11.50;99.90
8152;DHT22;4117;53.622;9.958;2024-03-02T12:22:00;11.50;99.90
8152;DHT22;4117;53.622;9.958;2024-03-02T12:24:30;11.50;99.90
8152;DHT22;4117;53.622;9.958;2024-03-02T12:26:58;11.60;99.90
8152;DHT22;4117;53.622;9.958;2024-03-02T12:29:25;11.60;99.90
8152;DHT22;4117;53.622;9.958;2024-03-02T12:31:54;11.60;99.90
8152;DHT22;4117;53.622;9.958;2024-03-02T12:34:21;11.70;99.90
8152;DHT22;4117;53.622;9.958;2024-03-02T12:36:49;11.70;99.90
8152;DHT22;4117;53.622;9.958;2024-03-02T12:39:19;11.70;99.90
8152;DHT22;4117;53.622;9.958;2024-03-02T12:41:49;11.70;99.90
8152;DHT22;4117;53.622;9.958;2024-03-02T12:44:17;11.70;99.90
8152;DHT22;4117;53.622;9.958;2024-03-02T12:46:44;11.70;99.90
8152;DHT22;4117;53.622;9.958;2024-03-02T12:49:14;11.80;99.90
8152;DHT22;4117;53.622;9.958;2024-03-02T12:51:42;11.70;99.90
8152;DHT22;4117;53.622;9.958;2024-03-02T12:54:10;11.80;99.90
8152;DHT22;4117;53.622;9.958;2024-03-02T12:56:37;11.80;99.90
8152;DHT22;4117;53.622;9.958;2024-03-02T12:59:05;11.80;99.90
8152;DHT22;4117;53.622;9.958;2024-03-02T13:01:32;11.80;99.90
8152;DHT22;4117;53.622;9.958;2024-03-02T13:03:59;11.80;99.90
8152;DHT22;4117;53.622;9.958;2024-03-02T13:06:28;11.80;99.90
8152;DHT22;4117;53.622;9.958;2024-03-02T13:08:55;11.80;99.90
8152;DHT22;4117;53.622;9.958;2024-03-02T13:11:23;11.80;99.90
8152;DHT22;4117;53.622;9.958;2024-03-02T13:13:51;11.90;99.90
8152;DHT22;4117;53.622;9.958;2024-03-02T13:16:18;11.90;99.90
8152;DHT22;4117;53.622;9.958;2024-03-02T13:18:46;11.90;99.90
8152;DHT22;4117;53.622;9.958;2024-03-02T13:21:13;11.90;99.90
8152;DHT22;4117;53.622;9.958;2024-03-02T13:23:41;12.00;99.90
8152;DHT22;4117;53.622;9.958;2024-03-02T13:26:09;12.00;99.90
8152;DHT22;4117;53.622;9.958;2024-03-02T13:28:38;12.00;99.90
8152;DHT22;4117;53.622;9.958;2024-03-02T13:31:21;12.00;99.90
8152;DHT22;4117;53.622;9.958;2024-03-02T13:33:48;12.00;99.90
8152;DHT22;4117;53.622;9.958;2024-03-02T13:36:15;12.10;99.90
8152;DHT22;4117;53.622;9.958;2024-03-02T13:38:44;12.10;99.90
8152;DHT22;4117;53.622;9.958;2024-03-02T13:41:11;12.10;99.90
8152;DHT22;4117;53.622;9.958;2024-03-02T13:43:38;12.10;99.90
8152;DHT22;4117;53.622;9.958;2024-03-02T13:46:05;12.20;99.90
8152;DHT22;4117;53.622;9.958;2024-03-02T13:48:32;12.30;99.90
8152;DHT22;4117;53.622;9.958;2024-03-02T13:51:00;12.30;99.90
8152;DHT22;4117;53.622;9.958;2024-03-02T13:53:26;12.40;99.90
8152;DHT22;4117;53.622;9.958;2024-03-02T13:55:55;12.50;99.90
8152;DHT22;4117;53.622;9.958;2024-03-02T13:58:22;12.50;99.90
8152;DHT22;4117;53.622;9.958;2024-03-02T14:00:49;12.50;99.90
8152;DHT22;4117;53.622;9.958;2024-03-02T14:03:17;12.50;99.90
8152;DHT22;4117;53.622;9.958;2024-03-02T14:05:44;12.50;99.90
8152;DHT22;4117;53.622;9.958;2024-03-02T14:08:11;12.50;99.90
8152;DHT22;4117;53.622;9.958;2024-03-02T14:10:38;12.50;99.90
8152;DHT22;4117;53.622;9.958;2024-03-02T14:13:07;12.50;99.90
8152;DHT22;4117;53.622;9.958;2024-03-02T14:15:34;12.50;99.90
8152;DHT22;4117;53.622;9.958;2024-03-02T14:18:04;12.50;99.90
8152;DHT22;4117;53.622;9.958;2024-03-02T14:20:31;12.60;99.90
8152;DHT22;4117;53.622;9.958;2024-03-02T14:22:59;12.60;99.90
8152;DHT22;4117;53.622;9.958;2024-03-02T14:25:26;12.60;99.90
8152;DHT22;4117;53.622;9.958;2024-03-02T14:27:56;12.60;99.90
8152;DHT22;4117;53.622;9.958;2024-03-02T14:30:26;12.50;99.90
8152;DHT22;4117;53.622;9.958;2024-03-02T14:32:53;12.50;99.90
8152;DHT22;4117;53.622;9.958;2024-03-02T14:35:20;12.50;99.90
8152;DHT22;4117;53.622;9.958;2024-03-02T14:37:50;12.50;99.90
8152;DHT22;4117;53.622;9.958;2024-03-02T14:40:17;12.50;99.90
8152;DHT22;4117;53.622;9.958;2024-03-02T14:42:44;12.50;99.90
8152;DHT22;4117;53.622;9.958;2024-03-02T14:45:14;12.50;99.90
8152;DHT22;4117;53.622;9.958;2024-03-02T14:47:42;12.50;99.90
8152;DHT22;4117;53.622;9.958;2024-03-02T14:50:09;12.50;99.90
8152;DHT22;4117;53.622;9.958;2024-03-02T14:52:36;12.50;99.90
8152;DHT22;4117;53.622;9.958;2024-03-02T14:55:04;12.40;99.90
8152;DHT22;4117;53.622;9.958;2024-03-02T14:57:33;12.40;99.90
8152;DHT22;4117;53.622;9.958;2024-03-02T15:00:00;12.40;99.90
8152;DHT22;4117;53.622;9.958;2024-03-02T15:02:27;12.30;99.90
8152;DHT22;4117;53.622;9.958;2024-03-02T15:04:56;12.30;99.90
8152;DHT22;4117;53.622;9.958;2024-03-02T15:07:23;12.40;99.90
8152;DHT22;4117;53.622;9.958;2024-03-02T15:09:50;12.30;99.90
8152;DHT22;4117;53.622;9.958;2024-03-02T15:12:17;12.30;99.90
8152;DHT22;4117;53.622;9.958;2024-03-02T15:14:45;12.40;99.90
8152;DHT22;4117;53.622;9.958;2024-03-02T15:17:13;12.40;99.90
8152;DHT22;4117;53.622;9.958;2024-03-02T15:19:42;12.30;99.90
8152;DHT22;4117;53.622;9.958;2024-03-02T15:22:11;12.30;99.90
8152;DHT22;4117;53.622;9.958;2024-03-02T15:24:39;12.30;99.90
8152;DHT22;4117;53.622;9.958;2024-03-02T15:27:06;12.30;99.90
8152;DHT22;4117;53.622;9.958;2024-03-02T15:29:34;12.30;99.90
8152;DHT22;4117;53.622;9.958;2024-03-02T15:32:01;12.30;99.90
8152;DHT22;4117;53.622;9.958;2024-03-02T15:34:30;12.20;99.90
8152;DHT22;4117;53.622;9.958;2024-03-02T15:36:57;12.20;99.90
8152;DHT22;4117;53.622;9.958;2024-03-02T15:39:26;12.20;99.90
8152;DHT22;4117;53.622;9.958;2024-03-02T15:41:53;12.20;99.90
8152;DHT22;4117;53.622;9.958;2024-03-02T15:44:20;12.20;99.90
8152;DHT22;4117;53.622;9.958;2024-03-02T15:46:47;12.10;99.90
8152;DHT22;4117;53.622;9.958;2024-03-02T15:49:14;12.10;99.90
8152;DHT22;4117;53.622;9.958;2024-03-02T15:51:41;12.10;99.90
8152;DHT22;4117;53.622;9.958;2024-03-02T15:54:09;12.10;99.90
8152;DHT22;4117;53.622;9.958;2024-03-02T15:56:38;12.00;99.90
8152;DHT22;4117;53.622;9.958;2024-03-02T15:59:05;12.00;99.90
8152;DHT22;4117;53.622;9.958;2024-03-02T16:01:33;12.00;99.90
8152;DHT22;4117;53.622;9.958;2024-03-02T16:04:00;12.00;99.90
8152;DHT22;4117;53.622;9.958;2024-03-02T16:06:27;12.00;99.90
8152;DHT22;4117;53.622;9.958;2024-03-02T16:08:54;12.00;99.90
8152;DHT22;4117;53.622;9.958;2024-03-02T16:11:22;11.90;99.90
8152;DHT22;4117;53.622;9.958;2024-03-02T16:13:51;11.90;99.90
8152;DHT22;4117;53.622;9.958;2024-03-02T16:16:18;11.80;99.90
8152;DHT22;4117;53.622;9.958;2024-03-02T16:18:45;11.80;99.90